Hermantown, Minnesota
Current Conditions -  °F | °C
As of 10:40 AM on Thursday 30 Oct 2014 (Local Time) from KDLH Reporting Station
Overcast Overcast  
Wind Chill: 31°   Ceiling: 1800
Heat Index: 38°   Visibility: 10mi
Dew Point: 31°   Wind: 10mph
Humidity: 76%   Direction: 310°NW
Pressure: 30.06"   Gusts: NA
Location:  46.8401°N, 92.218°W
Report Text: KDLH 301540Z 31009KT 10SM SCT011 SCT014 OVC018 03/M01 A3006 RMK AO2 T00331006 $
Loading
Personal Weather Stations






























Interactive Weather Map
Tropical Storm Tracking
New forecast layout! Learn more

10-Day Weather Forecast

Advertisements
Track Severe Weather on mobile